createdAt,value
2022-09-03T00:00:28.764Z,1.70
2022-09-03T00:37:42.980Z,2.10
2022-09-03T00:56:21.272Z,2.10
2022-09-03T01:14:59.449Z,2.10
2022-09-03T01:33:37.391Z,2.50
2022-09-03T01:52:16.755Z,2.40
2022-09-03T02:10:55.723Z,2.80
2022-09-03T02:29:34.677Z,3.40
2022-09-03T02:48:14.875Z,3.30
2022-09-03T03:25:33.036Z,3.00
2022-09-03T04:02:53.704Z,3.30
2022-09-03T04:21:33.334Z,3.10
2022-09-03T04:40:17.119Z,3.50
2022-09-03T04:58:53.941Z,3.10
2022-09-03T05:17:37.748Z,4.40
2022-09-03T05:54:56.783Z,3.50
2022-09-03T06:32:18.906Z,3.40
2022-09-03T06:50:58.281Z,5.50
2022-09-03T07:09:37.790Z,4.70
2022-09-03T07:28:19.630Z,4.00
2022-09-03T07:47:02.743Z,3.20
2022-09-03T08:05:45.533Z,1.70
2022-09-03T08:24:27.554Z,3.00
2022-09-03T08:43:09.914Z,2.00
2022-09-03T09:01:52.179Z,2.10
2022-09-03T09:20:35.468Z,2.10
2022-09-03T09:57:59.557Z,1.70
2022-09-03T10:16:47.928Z,1.60
2022-09-03T10:35:37.869Z,1.70
2022-09-03T11:13:11.893Z,0.80
2022-09-03T11:32:00.342Z,1.20
2022-09-03T12:09:30.865Z,0.50
2022-09-03T12:28:03.328Z,0.80
2022-09-03T12:46:48.593Z,0.50
2022-09-03T13:05:28.661Z,0.70
2022-09-03T13:24:20.141Z,0.70
2022-09-03T13:42:41.316Z,1.00
2022-09-03T14:20:17.945Z,1.20
2022-09-03T14:57:22.830Z,1.10
2022-09-03T15:53:02.514Z,1.10
2022-09-03T16:11:43.338Z,2.10
2022-09-03T16:30:12.108Z,1.50
2022-09-03T16:48:50.550Z,1.50
2022-09-03T17:07:29.000Z,0.80
2022-09-03T17:26:06.214Z,1.30
2022-09-03T18:03:18.922Z,1.60
2022-09-03T18:21:57.368Z,2.10
2022-09-03T18:40:40.835Z,1.90
2022-09-03T18:59:17.134Z,2.30
2022-09-03T19:36:26.472Z,1.10
2022-09-03T20:13:44.636Z,2.80
2022-09-03T20:51:03.956Z,2.30
2022-09-03T21:09:42.018Z,2.80
2022-09-03T21:28:22.039Z,1.50
2022-09-03T21:47:02.165Z,2.50
2022-09-03T22:05:41.134Z,2.10
2022-09-03T22:24:21.651Z,2.60
2022-09-03T22:43:04.853Z,2.00
2022-09-03T23:01:42.279Z,1.50
2022-09-03T23:20:21.754Z,3.50
2022-09-03T23:39:02.347Z,2.90
2022-09-03T23:57:44.432Z,2.60
